Terminal Aerodrome Forecast
Issued by NWS Sterling, VA

Current Version | Previous Version | Text Only | Print | Product List | Glossary Off
Versions: 1 2 3 4 5 6 7 8 9 10 11 12 13 14 15 16 17 18 19 20 21 22 23

000
FTUS41 KLWX 222300
TAFDCA
TAF
KDCA 222337Z 2300/2324 32006KT P6SM FEW050
     FM230700 00000KT P6SM FEW200
     FM232000 20004KT P6SM BKN110
     FM232200 17004KT P6SM -RASNPL OVC030=

USA.gov is the U.S. government's official web portal to all federal, state and local government web resources and services.